sensor_id;sensor_type;location;lat;lon;timestamp;P1;durP1;ratioP1;P2;durP2;ratioP2
43744;SDS011;29359;53.048;8.732;2022-08-19T00:00:21;7.18;;;4.28;;
43744;SDS011;29359;53.048;8.732;2022-08-19T00:02:23;4.55;;;4.15;;
43744;SDS011;29359;53.048;8.732;2022-08-19T00:04:26;4.72;;;4.32;;
43744;SDS011;29359;53.048;8.732;2022-08-19T00:06:30;6.57;;;4.47;;
43744;SDS011;29359;53.048;8.732;2022-08-19T00:08:32;5.45;;;4.57;;
43744;SDS011;29359;53.048;8.732;2022-08-19T00:10:33;5.13;;;4.63;;
43744;SDS011;29359;53.048;8.732;2022-08-19T00:12:35;5.75;;;4.75;;
43744;SDS011;29359;53.048;8.732;2022-08-19T00:14:47;6.28;;;4.57;;
43744;SDS011;29359;53.048;8.732;2022-08-19T00:16:48;10.30;;;4.85;;
43744;SDS011;29359;53.048;8.732;2022-08-19T00:18:55;8.73;;;5.38;;
43744;SDS011;29359;53.048;8.732;2022-08-19T00:20:57;9.93;;;5.22;;
43744;SDS011;29359;53.048;8.732;2022-08-19T00:23:00;6.68;;;4.22;;
43744;SDS011;29359;53.048;8.732;2022-08-19T00:25:02;6.55;;;4.85;;
43744;SDS011;29359;53.048;8.732;2022-08-19T00:27:04;11.85;;;5.45;;
43744;SDS011;29359;53.048;8.732;2022-08-19T00:29:26;6.18;;;4.78;;
43744;SDS011;29359;53.048;8.732;2022-08-19T00:31:27;8.25;;;4.60;;
43744;SDS011;29359;53.048;8.732;2022-08-19T00:33:29;5.97;;;4.95;;
43744;SDS011;29359;53.048;8.732;2022-08-19T00:35:33;7.10;;;4.95;;
43744;SDS011;29359;53.048;8.732;2022-08-19T00:37:35;7.07;;;4.82;;
43744;SDS011;29359;53.048;8.732;2022-08-19T00:39:37;7.63;;;4.55;;
43744;SDS011;29359;53.048;8.732;2022-08-19T00:41:38;7.72;;;5.05;;
43744;SDS011;29359;53.048;8.732;2022-08-19T00:43:40;7.38;;;4.82;;
43744;SDS011;29359;53.048;8.732;2022-08-19T00:45:42;7.97;;;5.25;;
43744;SDS011;29359;53.048;8.732;2022-08-19T00:47:44;5.18;;;4.43;;
43744;SDS011;29359;53.048;8.732;2022-08-19T00:49:50;4.72;;;4.32;;
43744;SDS011;29359;53.048;8.732;2022-08-19T00:52:14;5.93;;;4.57;;
43744;SDS011;29359;53.048;8.732;2022-08-19T00:54:17;5.07;;;3.90;;
43744;SDS011;29359;53.048;8.732;2022-08-19T00:56:30;5.32;;;4.40;;
43744;SDS011;29359;53.048;8.732;2022-08-19T00:58:32;5.90;;;4.32;;
43744;SDS011;29359;53.048;8.732;2022-08-19T01:00:36;4.93;;;3.90;;
43744;SDS011;29359;53.048;8.732;2022-08-19T01:02:39;7.68;;;4.10;;
43744;SDS011;29359;53.048;8.732;2022-08-19T01:04:42;4.88;;;4.32;;
43744;SDS011;29359;53.048;8.732;2022-08-19T01:06:43;6.30;;;4.38;;
43744;SDS011;29359;53.048;8.732;2022-08-19T01:08:45;4.47;;;4.05;;
43744;SDS011;29359;53.048;8.732;2022-08-19T01:10:52;4.13;;;3.72;;
43744;SDS011;29359;53.048;8.732;2022-08-19T01:12:57;9.23;;;3.83;;
43744;SDS011;29359;53.048;8.732;2022-08-19T01:15:00;5.47;;;4.05;;
43744;SDS011;29359;53.048;8.732;2022-08-19T01:17:02;6.72;;;4.35;;
43744;SDS011;29359;53.048;8.732;2022-08-19T01:19:09;5.80;;;3.80;;
43744;SDS011;29359;53.048;8.732;2022-08-19T01:23:35;6.50;;;4.05;;
43744;SDS011;29359;53.048;8.732;2022-08-19T01:25:50;4.68;;;4.13;;
43744;SDS011;29359;53.048;8.732;2022-08-19T01:27:55;6.07;;;4.05;;
43744;SDS011;29359;53.048;8.732;2022-08-19T01:30:03;7.45;;;3.85;;
43744;SDS011;29359;53.048;8.732;2022-08-19T01:32:07;4.78;;;4.07;;
43744;SDS011;29359;53.048;8.732;2022-08-19T01:34:32;6.38;;;4.05;;
43744;SDS011;29359;53.048;8.732;2022-08-19T01:36:40;6.70;;;4.00;;
43744;SDS011;29359;53.048;8.732;2022-08-19T01:38:45;4.85;;;3.35;;
43744;SDS011;29359;53.048;8.732;2022-08-19T01:40:47;9.52;;;4.00;;
43744;SDS011;29359;53.048;8.732;2022-08-19T01:42:49;6.85;;;3.65;;
43744;SDS011;29359;53.048;8.732;2022-08-19T01:44:51;6.47;;;4.03;;
43744;SDS011;29359;53.048;8.732;2022-08-19T01:46:52;3.58;;;3.28;;
43744;SDS011;29359;53.048;8.732;2022-08-19T01:48:54;4.10;;;3.38;;
43744;SDS011;29359;53.048;8.732;2022-08-19T01:50:56;3.50;;;3.20;;
43744;SDS011;29359;53.048;8.732;2022-08-19T01:52:57;3.67;;;3.38;;
43744;SDS011;29359;53.048;8.732;2022-08-19T01:55:09;6.78;;;4.30;;
43744;SDS011;29359;53.048;8.732;2022-08-19T01:57:14;8.20;;;3.65;;
43744;SDS011;29359;53.048;8.732;2022-08-19T01:59:17;7.55;;;3.72;;
43744;SDS011;29359;53.048;8.732;2022-08-19T02:01:21;4.70;;;3.25;;
43744;SDS011;29359;53.048;8.732;2022-08-19T02:03:26;5.03;;;3.10;;
43744;SDS011;29359;53.048;8.732;2022-08-19T02:05:27;5.65;;;3.70;;
43744;SDS011;29359;53.048;8.732;2022-08-19T02:07:30;7.22;;;2.85;;
43744;SDS011;29359;53.048;8.732;2022-08-19T02:09:31;6.10;;;3.20;;
43744;SDS011;29359;53.048;8.732;2022-08-19T02:11:34;6.90;;;3.72;;
43744;SDS011;29359;53.048;8.732;2022-08-19T02:13:37;5.68;;;3.60;;
43744;SDS011;29359;53.048;8.732;2022-08-19T02:15:39;3.67;;;3.15;;
43744;SDS011;29359;53.048;8.732;2022-08-19T02:17:41;5.13;;;3.47;;
43744;SDS011;29359;53.048;8.732;2022-08-19T02:19:43;3.75;;;3.30;;
43744;SDS011;29359;53.048;8.732;2022-08-19T02:21:44;3.65;;;3.35;;
43744;SDS011;29359;53.048;8.732;2022-08-19T02:23:46;6.63;;;3.30;;
43744;SDS011;29359;53.048;8.732;2022-08-19T02:25:48;4.43;;;3.75;;
43744;SDS011;29359;53.048;8.732;2022-08-19T02:27:50;4.03;;;2.97;;
43744;SDS011;29359;53.048;8.732;2022-08-19T02:29:51;4.22;;;3.33;;
43744;SDS011;29359;53.048;8.732;2022-08-19T02:31:53;3.90;;;3.42;;
43744;SDS011;29359;53.048;8.732;2022-08-19T02:33:55;3.65;;;3.35;;
43744;SDS011;29359;53.048;8.732;2022-08-19T02:35:57;9.32;;;3.63;;
43744;SDS011;29359;53.048;8.732;2022-08-19T02:37:59;4.35;;;3.30;;
43744;SDS011;29359;53.048;8.732;2022-08-19T02:40:19;4.60;;;3.67;;
43744;SDS011;29359;53.048;8.732;2022-08-19T02:42:22;7.65;;;3.95;;
43744;SDS011;29359;53.048;8.732;2022-08-19T02:44:24;3.80;;;3.50;;
43744;SDS011;29359;53.048;8.732;2022-08-19T02:46:32;4.70;;;3.50;;
43744;SDS011;29359;53.048;8.732;2022-08-19T02:48:34;5.10;;;3.72;;
43744;SDS011;29359;53.048;8.732;2022-08-19T02:50:39;4.03;;;3.58;;
43744;SDS011;29359;53.048;8.732;2022-08-19T02:52:53;9.43;;;4.13;;
43744;SDS011;29359;53.048;8.732;2022-08-19T02:54:55;4.63;;;4.20;;
43744;SDS011;29359;53.048;8.732;2022-08-19T02:56:58;4.72;;;4.13;;
43744;SDS011;29359;53.048;8.732;2022-08-19T02:59:00;5.63;;;4.35;;
43744;SDS011;29359;53.048;8.732;2022-08-19T03:01:01;5.22;;;4.43;;
43744;SDS011;29359;53.048;8.732;2022-08-19T03:03:03;6.30;;;3.83;;
43744;SDS011;29359;53.048;8.732;2022-08-19T03:05:06;7.32;;;4.32;;
43744;SDS011;29359;53.048;8.732;2022-08-19T03:07:09;4.75;;;4.25;;
43744;SDS011;29359;53.048;8.732;2022-08-19T03:09:15;5.35;;;4.78;;
43744;SDS011;29359;53.048;8.732;2022-08-19T03:11:19;7.55;;;4.45;;
43744;SDS011;29359;53.048;8.732;2022-08-19T03:13:25;4.57;;;4.07;;
43744;SDS011;29359;53.048;8.732;2022-08-19T03:15:26;6.00;;;4.22;;
43744;SDS011;29359;53.048;8.732;2022-08-19T03:17:28;6.07;;;4.88;;
43744;SDS011;29359;53.048;8.732;2022-08-19T03:19:30;6.10;;;4.55;;
43744;SDS011;29359;53.048;8.732;2022-08-19T03:21:33;6.13;;;4.50;;
43744;SDS011;29359;53.048;8.732;2022-08-19T03:23:35;5.18;;;4.15;;
43744;SDS011;29359;53.048;8.732;2022-08-19T03:25:38;4.63;;;4.22;;
43744;SDS011;29359;53.048;8.732;2022-08-19T03:27:43;5.13;;;3.90;;
43744;SDS011;29359;53.048;8.732;2022-08-19T03:29:44;6.32;;;4.47;;
43744;SDS011;29359;53.048;8.732;2022-08-19T03:31:46;6.00;;;4.50;;
43744;SDS011;29359;53.048;8.732;2022-08-19T03:33:52;5.40;;;4.35;;
43744;SDS011;29359;53.048;8.732;2022-08-19T03:38:06;4.53;;;4.13;;
43744;SDS011;29359;53.048;8.732;2022-08-19T03:40:08;6.25;;;4.60;;
43744;SDS011;29359;53.048;8.732;2022-08-19T03:42:16;5.22;;;4.72;;
43744;SDS011;29359;53.048;8.732;2022-08-19T03:44:33;5.60;;;4.50;;
43744;SDS011;29359;53.048;8.732;2022-08-19T03:46:37;10.05;;;4.30;;
43744;SDS011;29359;53.048;8.732;2022-08-19T03:48:44;6.82;;;4.78;;
43744;SDS011;29359;53.048;8.732;2022-08-19T03:50:46;4.28;;;3.88;;
43744;SDS011;29359;53.048;8.732;2022-08-19T03:52:50;8.70;;;4.00;;
43744;SDS011;29359;53.048;8.732;2022-08-19T03:54:53;6.18;;;4.53;;
43744;SDS011;29359;53.048;8.732;2022-08-19T03:56:55;5.55;;;4.63;;
43744;SDS011;29359;53.048;8.732;2022-08-19T03:58:57;6.43;;;4.38;;
43744;SDS011;29359;53.048;8.732;2022-08-19T04:01:00;4.57;;;4.18;;
43744;SDS011;29359;53.048;8.732;2022-08-19T04:03:02;5.25;;;4.18;;
43744;SDS011;29359;53.048;8.732;2022-08-19T04:05:04;7.00;;;4.90;;
43744;SDS011;29359;53.048;8.732;2022-08-19T04:07:06;4.97;;;4.25;;
43744;SDS011;29359;53.048;8.732;2022-08-19T04:09:10;7.15;;;4.50;;
43744;SDS011;29359;53.048;8.732;2022-08-19T04:11:13;7.55;;;5.40;;
43744;SDS011;29359;53.048;8.732;2022-08-19T04:13:17;4.90;;;4.47;;
43744;SDS011;29359;53.048;8.732;2022-08-19T04:15:19;5.22;;;4.72;;
43744;SDS011;29359;53.048;8.732;2022-08-19T04:17:21;5.93;;;4.28;;
43744;SDS011;29359;53.048;8.732;2022-08-19T04:19:23;5.35;;;4.30;;
43744;SDS011;29359;53.048;8.732;2022-08-19T04:21:25;5.85;;;4.47;;
43744;SDS011;29359;53.048;8.732;2022-08-19T04:23:28;4.80;;;4.32;;
43744;SDS011;29359;53.048;8.732;2022-08-19T04:25:34;5.75;;;4.53;;
43744;SDS011;29359;53.048;8.732;2022-08-19T04:27:37;7.43;;;4.63;;
43744;SDS011;29359;53.048;8.732;2022-08-19T04:29:38;5.25;;;4.75;;
43744;SDS011;29359;53.048;8.732;2022-08-19T04:31:42;7.90;;;4.50;;
43744;SDS011;29359;53.048;8.732;2022-08-19T04:33:46;6.18;;;4.80;;
43744;SDS011;29359;53.048;8.732;2022-08-19T04:35:48;6.10;;;4.68;;
43744;SDS011;29359;53.048;8.732;2022-08-19T04:37:52;5.80;;;4.90;;
43744;SDS011;29359;53.048;8.732;2022-08-19T04:39:54;5.53;;;5.03;;
43744;SDS011;29359;53.048;8.732;2022-08-19T04:42:15;6.07;;;4.82;;
43744;SDS011;29359;53.048;8.732;2022-08-19T04:44:37;7.75;;;4.68;;
43744;SDS011;29359;53.048;8.732;2022-08-19T04:46:47;7.93;;;4.43;;
43744;SDS011;29359;53.048;8.732;2022-08-19T04:48:51;7.40;;;4.95;;
43744;SDS011;29359;53.048;8.732;2022-08-19T04:50:55;7.28;;;5.13;;
43744;SDS011;29359;53.048;8.732;2022-08-19T04:53:01;5.35;;;4.82;;
43744;SDS011;29359;53.048;8.732;2022-08-19T04:55:02;6.10;;;5.13;;
43744;SDS011;29359;53.048;8.732;2022-08-19T04:57:07;6.40;;;5.50;;
43744;SDS011;29359;53.048;8.732;2022-08-19T04:59:11;7.00;;;4.97;;
43744;SDS011;29359;53.048;8.732;2022-08-19T05:01:13;7.20;;;5.25;;
43744;SDS011;29359;53.048;8.732;2022-08-19T05:03:19;7.78;;;5.25;;
43744;SDS011;29359;53.048;8.732;2022-08-19T05:05:21;7.65;;;6.03;;
43744;SDS011;29359;53.048;8.732;2022-08-19T05:07:23;5.57;;;4.80;;
43744;SDS011;29359;53.048;8.732;2022-08-19T05:09:24;7.55;;;5.53;;
43744;SDS011;29359;53.048;8.732;2022-08-19T05:11:29;7.95;;;5.78;;
43744;SDS011;29359;53.048;8.732;2022-08-19T05:13:34;6.45;;;5.05;;
43744;SDS011;29359;53.048;8.732;2022-08-19T05:15:35;6.68;;;5.72;;
43744;SDS011;29359;53.048;8.732;2022-08-19T05:17:37;9.07;;;6.07;;
43744;SDS011;29359;53.048;8.732;2022-08-19T05:19:39;6.93;;;5.65;;
43744;SDS011;29359;53.048;8.732;2022-08-19T05:21:59;5.53;;;4.95;;
43744;SDS011;29359;53.048;8.732;2022-08-19T05:24:21;11.98;;;5.60;;
43744;SDS011;29359;53.048;8.732;2022-08-19T05:26:25;10.30;;;6.35;;
43744;SDS011;29359;53.048;8.732;2022-08-19T05:28:27;9.07;;;5.72;;
43744;SDS011;29359;53.048;8.732;2022-08-19T05:30:31;10.05;;;5.43;;
43744;SDS011;29359;53.048;8.732;2022-08-19T05:32:47;9.10;;;6.57;;
43744;SDS011;29359;53.048;8.732;2022-08-19T05:34:49;10.05;;;6.07;;
43744;SDS011;29359;53.048;8.732;2022-08-19T05:36:51;9.70;;;6.50;;
43744;SDS011;29359;53.048;8.732;2022-08-19T05:38:57;9.55;;;6.63;;
43744;SDS011;29359;53.048;8.732;2022-08-19T05:40:58;9.40;;;6.97;;
43744;SDS011;29359;53.048;8.732;2022-08-19T05:43:00;10.82;;;6.30;;
43744;SDS011;29359;53.048;8.732;2022-08-19T05:45:02;11.13;;;6.75;;
43744;SDS011;29359;53.048;8.732;2022-08-19T05:47:06;9.00;;;6.18;;
43744;SDS011;29359;53.048;8.732;2022-08-19T05:49:09;10.52;;;6.03;;
43744;SDS011;29359;53.048;8.732;2022-08-19T05:51:11;8.00;;;5.65;;
43744;SDS011;29359;53.048;8.732;2022-08-19T05:53:12;12.65;;;6.82;;
43744;SDS011;29359;53.048;8.732;2022-08-19T05:55:15;11.07;;;6.22;;
43744;SDS011;29359;53.048;8.732;2022-08-19T05:57:17;9.40;;;6.50;;
43744;SDS011;29359;53.048;8.732;2022-08-19T05:59:20;9.32;;;6.15;;
43744;SDS011;29359;53.048;8.732;2022-08-19T06:01:25;9.70;;;6.45;;
43744;SDS011;29359;53.048;8.732;2022-08-19T06:03:27;8.85;;;5.75;;
43744;SDS011;29359;53.048;8.732;2022-08-19T06:05:29;10.50;;;5.90;;
43744;SDS011;29359;53.048;8.732;2022-08-19T06:07:46;8.45;;;6.00;;
43744;SDS011;29359;53.048;8.732;2022-08-19T06:09:48;9.45;;;5.25;;
43744;SDS011;29359;53.048;8.732;2022-08-19T06:12:01;7.93;;;5.65;;
43744;SDS011;29359;53.048;8.732;2022-08-19T06:14:05;11.32;;;6.35;;
43744;SDS011;29359;53.048;8.732;2022-08-19T06:16:17;8.13;;;5.38;;
43744;SDS011;29359;53.048;8.732;2022-08-19T06:18:24;9.70;;;6.10;;
43744;SDS011;29359;53.048;8.732;2022-08-19T06:20:26;7.07;;;5.53;;
43744;SDS011;29359;53.048;8.732;2022-08-19T06:22:48;8.45;;;6.07;;
43744;SDS011;29359;53.048;8.732;2022-08-19T06:24:51;9.55;;;6.15;;
43744;SDS011;29359;53.048;8.732;2022-08-19T06:26:55;15.18;;;6.60;;
43744;SDS011;29359;53.048;8.732;2022-08-19T06:29:03;8.00;;;5.70;;
43744;SDS011;29359;53.048;8.732;2022-08-19T06:31:07;8.60;;;6.40;;
43744;SDS011;29359;53.048;8.732;2022-08-19T06:33:09;12.50;;;6.13;;
43744;SDS011;29359;53.048;8.732;2022-08-19T06:35:10;8.25;;;6.43;;
43744;SDS011;29359;53.048;8.732;2022-08-19T06:37:13;8.32;;;6.03;;
43744;SDS011;29359;53.048;8.732;2022-08-19T06:39:16;12.32;;;6.05;;
43744;SDS011;29359;53.048;8.732;2022-08-19T06:41:20;6.82;;;4.93;;
43744;SDS011;29359;53.048;8.732;2022-08-19T06:43:22;8.65;;;5.68;;
43744;SDS011;29359;53.048;8.732;2022-08-19T06:45:28;6.45;;;5.13;;
43744;SDS011;29359;53.048;8.732;2022-08-19T06:47:35;9.35;;;5.38;;
43744;SDS011;29359;53.048;8.732;2022-08-19T06:49:37;6.35;;;5.30;;
43744;SDS011;29359;53.048;8.732;2022-08-19T06:51:42;8.90;;;5.47;;
43744;SDS011;29359;53.048;8.732;2022-08-19T06:53:50;9.35;;;5.60;;
43744;SDS011;29359;53.048;8.732;2022-08-19T06:55:53;9.77;;;5.28;;
43744;SDS011;29359;53.048;8.732;2022-08-19T06:58:01;9.10;;;5.90;;
43744;SDS011;29359;53.048;8.732;2022-08-19T07:00:05;8.75;;;5.13;;
43744;SDS011;29359;53.048;8.732;2022-08-19T07:02:13;6.07;;;4.72;;
43744;SDS011;29359;53.048;8.732;2022-08-19T07:04:16;8.85;;;4.53;;
43744;SDS011;29359;53.048;8.732;2022-08-19T07:06:19;4.95;;;4.40;;
43744;SDS011;29359;53.048;8.732;2022-08-19T07:08:41;7.72;;;4.82;;
43744;SDS011;29359;53.048;8.732;2022-08-19T07:10:44;6.28;;;4.78;;
43744;SDS011;29359;53.048;8.732;2022-08-19T07:12:46;10.13;;;5.13;;
43744;SDS011;29359;53.048;8.732;2022-08-19T07:14:50;7.70;;;4.80;;
43744;SDS011;29359;53.048;8.732;2022-08-19T07:16:53;5.05;;;4.53;;
43744;SDS011;29359;53.048;8.732;2022-08-19T07:18:57;8.05;;;4.57;;
43744;SDS011;29359;53.048;8.732;2022-08-19T07:23:30;5.35;;;4.78;;
43744;SDS011;29359;53.048;8.732;2022-08-19T07:25:32;6.75;;;4.53;;
43744;SDS011;29359;53.048;8.732;2022-08-19T07:27:33;8.13;;;5.00;;
43744;SDS011;29359;53.048;8.732;2022-08-19T07:29:35;5.57;;;4.38;;
43744;SDS011;29359;53.048;8.732;2022-08-19T07:31:38;7.45;;;4.93;;
43744;SDS011;29359;53.048;8.732;2022-08-19T07:33:40;6.30;;;4.65;;
43744;SDS011;29359;53.048;8.732;2022-08-19T07:35:44;5.68;;;4.03;;
43744;SDS011;29359;53.048;8.732;2022-08-19T07:37:45;5.65;;;3.65;;
43744;SDS011;29359;53.048;8.732;2022-08-19T07:39:47;3.17;;;2.20;;
43744;SDS011;29359;53.048;8.732;2022-08-19T07:41:49;6.07;;;2.58;;
43744;SDS011;29359;53.048;8.732;2022-08-19T07:43:51;5.20;;;2.67;;
43744;SDS011;29359;53.048;8.732;2022-08-19T07:45:54;3.47;;;2.75;;
43744;SDS011;29359;53.048;8.732;2022-08-19T07:47:59;3.85;;;3.17;;
43744;SDS011;29359;53.048;8.732;2022-08-19T07:50:03;3.88;;;3.30;;
43744;SDS011;29359;53.048;8.732;2022-08-19T07:52:08;4.45;;;4.03;;
43744;SDS011;29359;53.048;8.732;2022-08-19T07:54:10;4.13;;;3.17;;
43744;SDS011;29359;53.048;8.732;2022-08-19T07:56:13;4.22;;;3.83;;
43744;SDS011;29359;53.048;8.732;2022-08-19T07:58:17;5.35;;;3.95;;
43744;SDS011;29359;53.048;8.732;2022-08-19T08:00:20;7.25;;;4.03;;
43744;SDS011;29359;53.048;8.732;2022-08-19T08:02:24;8.05;;;3.78;;
43744;SDS011;29359;53.048;8.732;2022-08-19T08:04:26;5.53;;;4.55;;
43744;SDS011;29359;53.048;8.732;2022-08-19T08:06:47;6.72;;;4.55;;
43744;SDS011;29359;53.048;8.732;2022-08-19T08:09:07;11.40;;;4.47;;
43744;SDS011;29359;53.048;8.732;2022-08-19T08:11:12;8.13;;;4.30;;
43744;SDS011;29359;53.048;8.732;2022-08-19T08:13:15;5.85;;;4.57;;
43744;SDS011;29359;53.048;8.732;2022-08-19T08:15:17;7.43;;;4.43;;
43744;SDS011;29359;53.048;8.732;2022-08-19T08:17:20;7.15;;;4.65;;
43744;SDS011;29359;53.048;8.732;2022-08-19T08:19:44;7.00;;;4.85;;
43744;SDS011;29359;53.048;8.732;2022-08-19T08:21:46;5.50;;;4.43;;
43744;SDS011;29359;53.048;8.732;2022-08-19T08:23:49;6.15;;;4.47;;
43744;SDS011;29359;53.048;8.732;2022-08-19T08:25:57;4.72;;;4.20;;
43744;SDS011;29359;53.048;8.732;2022-08-19T08:27:59;7.72;;;5.18;;
43744;SDS011;29359;53.048;8.732;2022-08-19T08:30:01;6.07;;;4.18;;
43744;SDS011;29359;53.048;8.732;2022-08-19T08:32:04;11.55;;;4.18;;
43744;SDS011;29359;53.048;8.732;2022-08-19T08:34:14;10.32;;;5.07;;
43744;SDS011;29359;53.048;8.732;2022-08-19T08:36:16;5.68;;;4.07;;
43744;SDS011;29359;53.048;8.732;2022-08-19T08:38:18;5.90;;;4.13;;
43744;SDS011;29359;53.048;8.732;2022-08-19T08:46:39;12.95;;;3.80;;
43744;SDS011;29359;53.048;8.732;2022-08-19T08:48:51;6.38;;;3.28;;
43744;SDS011;29359;53.048;8.732;2022-08-19T08:50:57;3.45;;;3.15;;
43744;SDS011;29359;53.048;8.732;2022-08-19T08:53:05;6.00;;;2.90;;
43744;SDS011;29359;53.048;8.732;2022-08-19T08:55:10;3.58;;;3.08;;
43744;SDS011;29359;53.048;8.732;2022-08-19T08:57:20;4.70;;;2.72;;
43744;SDS011;29359;53.048;8.732;2022-08-19T08:59:35;3.75;;;2.72;;
43744;SDS011;29359;53.048;8.732;2022-08-19T09:01:39;2.92;;;2.10;;
43744;SDS011;29359;53.048;8.732;2022-08-19T09:03:41;4.03;;;2.80;;
43744;SDS011;29359;53.048;8.732;2022-08-19T09:08:18;3.75;;;2.95;;
43744;SDS011;29359;53.048;8.732;2022-08-19T09:10:37;4.45;;;2.70;;
43744;SDS011;29359;53.048;8.732;2022-08-19T09:15:02;6.35;;;2.03;;
43744;SDS011;29359;53.048;8.732;2022-08-19T09:17:09;5.93;;;2.95;;
43744;SDS011;29359;53.048;8.732;2022-08-19T09:19:10;1.88;;;1.70;;
43744;SDS011;29359;53.048;8.732;2022-08-19T09:21:12;3.40;;;1.88;;
43744;SDS011;29359;53.048;8.732;2022-08-19T09:23:15;2.35;;;1.98;;
43744;SDS011;29359;53.048;8.732;2022-08-19T09:25:21;3.92;;;2.22;;
43744;SDS011;29359;53.048;8.732;2022-08-19T09:27:29;2.40;;;2.20;;
43744;SDS011;29359;53.048;8.732;2022-08-19T09:29:52;4.35;;;1.90;;
43744;SDS011;29359;53.048;8.732;2022-08-19T09:31:55;4.57;;;1.90;;
43744;SDS011;29359;53.048;8.732;2022-08-19T09:33:56;1.98;;;1.73;;
43744;SDS011;29359;53.048;8.732;2022-08-19T09:36:17;3.40;;;1.60;;
43744;SDS011;29359;53.048;8.732;2022-08-19T09:38:29;3.30;;;1.63;;
43744;SDS011;29359;53.048;8.732;2022-08-19T09:40:31;8.70;;;1.70;;
43744;SDS011;29359;53.048;8.732;2022-08-19T09:42:38;3.22;;;1.60;;
43744;SDS011;29359;53.048;8.732;2022-08-19T09:44:51;4.00;;;1.73;;
43744;SDS011;29359;53.048;8.732;2022-08-19T09:46:52;1.40;;;1.30;;
43744;SDS011;29359;53.048;8.732;2022-08-19T09:48:54;2.83;;;1.67;;
43744;SDS011;29359;53.048;8.732;2022-08-19T09:51:07;4.68;;;1.50;;
43744;SDS011;29359;53.048;8.732;2022-08-19T09:53:12;1.92;;;1.30;;
43744;SDS011;29359;53.048;8.732;2022-08-19T09:55:13;2.22;;;1.52;;
43744;SDS011;29359;53.048;8.732;2022-08-19T09:57:18;7.55;;;1.50;;
43744;SDS011;29359;53.048;8.732;2022-08-19T09:59:19;5.75;;;1.60;;
43744;SDS011;29359;53.048;8.732;2022-08-19T10:01:22;3.80;;;1.30;;
43744;SDS011;29359;53.048;8.732;2022-08-19T10:03:26;2.55;;;1.02;;
43744;SDS011;29359;53.048;8.732;2022-08-19T10:05:30;3.17;;;1.10;;
43744;SDS011;29359;53.048;8.732;2022-08-19T10:07:50;2.67;;;1.20;;
43744;SDS011;29359;53.048;8.732;2022-08-19T10:09:51;1.80;;;1.23;;
43744;SDS011;29359;53.048;8.732;2022-08-19T10:11:53;3.10;;;1.25;;
43744;SDS011;29359;53.048;8.732;2022-08-19T10:13:55;1.42;;;1.30;;
43744;SDS011;29359;53.048;8.732;2022-08-19T10:16:05;3.17;;;1.60;;
43744;SDS011;29359;53.048;8.732;2022-08-19T10:18:10;2.05;;;1.52;;
43744;SDS011;29359;53.048;8.732;2022-08-19T10:20:12;21.40;;;1.90;;
43744;SDS011;29359;53.048;8.732;2022-08-19T10:22:13;5.13;;;1.20;;
43744;SDS011;29359;53.048;8.732;2022-08-19T10:24:16;1.85;;;1.33;;
43744;SDS011;29359;53.048;8.732;2022-08-19T10:26:20;3.63;;;1.52;;
43744;SDS011;29359;53.048;8.732;2022-08-19T10:28:26;1.98;;;1.80;;
43744;SDS011;29359;53.048;8.732;2022-08-19T10:30:30;1.50;;;1.40;;
43744;SDS011;29359;53.048;8.732;2022-08-19T10:32:32;2.72;;;1.30;;
43744;SDS011;29359;53.048;8.732;2022-08-19T10:34:35;2.47;;;1.65;;
43744;SDS011;29359;53.048;8.732;2022-08-19T10:36:48;1.30;;;1.20;;
43744;SDS011;29359;53.048;8.732;2022-08-19T10:38:58;3.35;;;1.30;;
43744;SDS011;29359;53.048;8.732;2022-08-19T10:41:16;5.40;;;1.40;;
43744;SDS011;29359;53.048;8.732;2022-08-19T10:43:20;2.20;;;1.35;;
43744;SDS011;29359;53.048;8.732;2022-08-19T10:45:22;5.78;;;1.00;;
43744;SDS011;29359;53.048;8.732;2022-08-19T10:47:28;1.13;;;0.85;;
43744;SDS011;29359;53.048;8.732;2022-08-19T10:49:32;1.55;;;0.80;;
43744;SDS011;29359;53.048;8.732;2022-08-19T10:51:53;0.90;;;0.85;;
43744;SDS011;29359;53.048;8.732;2022-08-19T10:54:21;1.00;;;0.68;;
43744;SDS011;29359;53.048;8.732;2022-08-19T10:56:33;1.33;;;0.73;;
43744;SDS011;29359;53.048;8.732;2022-08-19T10:58:53;1.00;;;0.60;;
43744;SDS011;29359;53.048;8.732;2022-08-19T11:00:56;0.57;;;0.55;;
43744;SDS011;29359;53.048;8.732;2022-08-19T11:02:59;0.82;;;0.60;;
43744;SDS011;29359;53.048;8.732;2022-08-19T11:05:00;1.00;;;0.50;;
43744;SDS011;29359;53.048;8.732;2022-08-19T11:07:12;0.90;;;0.60;;
43744;SDS011;29359;53.048;8.732;2022-08-19T11:09:15;0.50;;;0.50;;
43744;SDS011;29359;53.048;8.732;2022-08-19T11:11:20;1.60;;;0.93;;
43744;SDS011;29359;53.048;8.732;2022-08-19T11:13:22;1.52;;;0.60;;
43744;SDS011;29359;53.048;8.732;2022-08-19T11:15:24;2.42;;;0.63;;
43744;SDS011;29359;53.048;8.732;2022-08-19T11:17:26;0.60;;;0.40;;
43744;SDS011;29359;53.048;8.732;2022-08-19T11:19:28;6.03;;;0.50;;
43744;SDS011;29359;53.048;8.732;2022-08-19T11:21:33;1.77;;;0.50;;
43744;SDS011;29359;53.048;8.732;2022-08-19T11:23:38;1.40;;;1.17;;
43744;SDS011;29359;53.048;8.732;2022-08-19T11:25:39;5.25;;;0.55;;
43744;SDS011;29359;53.048;8.732;2022-08-19T11:27:41;1.45;;;0.38;;
43744;SDS011;29359;53.048;8.732;2022-08-19T11:29:44;0.55;;;0.40;;
43744;SDS011;29359;53.048;8.732;2022-08-19T11:31:46;3.97;;;0.73;;
43744;SDS011;29359;53.048;8.732;2022-08-19T11:33:49;0.70;;;0.45;;
43744;SDS011;29359;53.048;8.732;2022-08-19T11:35:56;0.50;;;0.40;;
43744;SDS011;29359;53.048;8.732;2022-08-19T11:38:00;2.47;;;0.60;;
43744;SDS011;29359;53.048;8.732;2022-08-19T11:40:03;0.73;;;0.60;;
43744;SDS011;29359;53.048;8.732;2022-08-19T11:42:06;3.40;;;0.70;;
43744;SDS011;29359;53.048;8.732;2022-08-19T11:44:28;3.65;;;0.85;;
43744;SDS011;29359;53.048;8.732;2022-08-19T11:46:31;1.23;;;0.63;;
43744;SDS011;29359;53.048;8.732;2022-08-19T11:48:33;8.88;;;0.73;;
43744;SDS011;29359;53.048;8.732;2022-08-19T11:50:35;1.60;;;0.40;;
43744;SDS011;29359;53.048;8.732;2022-08-19T11:52:37;2.13;;;0.47;;
43744;SDS011;29359;53.048;8.732;2022-08-19T11:54:38;1.02;;;0.60;;
43744;SDS011;29359;53.048;8.732;2022-08-19T11:56:40;1.15;;;0.65;;
43744;SDS011;29359;53.048;8.732;2022-08-19T11:58:42;1.00;;;0.50;;
43744;SDS011;29359;53.048;8.732;2022-08-19T12:00:44;3.22;;;0.43;;
43744;SDS011;29359;53.048;8.732;2022-08-19T12:02:46;3.03;;;0.50;;
43744;SDS011;29359;53.048;8.732;2022-08-19T12:04:47;1.52;;;0.40;;
43744;SDS011;29359;53.048;8.732;2022-08-19T12:06:49;1.35;;;0.30;;
43744;SDS011;29359;53.048;8.732;2022-08-19T12:08:51;0.60;;;0.30;;
43744;SDS011;29359;53.048;8.732;2022-08-19T12:10:53;0.30;;;0.20;;
43744;SDS011;29359;53.048;8.732;2022-08-19T12:12:54;0.10;;;0.10;;
43744;SDS011;29359;53.048;8.732;2022-08-19T12:14:59;0.40;;;0.30;;
43744;SDS011;29359;53.048;8.732;2022-08-19T12:17:00;3.60;;;0.40;;
43744;SDS011;29359;53.048;8.732;2022-08-19T12:19:04;6.20;;;0.30;;
43744;SDS011;29359;53.048;8.732;2022-08-19T12:21:06;0.52;;;0.25;;
43744;SDS011;29359;53.048;8.732;2022-08-19T12:23:08;0.20;;;0.20;;
43744;SDS011;29359;53.048;8.732;2022-08-19T12:25:11;0.30;;;0.30;;
43744;SDS011;29359;53.048;8.732;2022-08-19T12:27:12;0.47;;;0.30;;
43744;SDS011;29359;53.048;8.732;2022-08-19T12:29:26;1.05;;;0.28;;
43744;SDS011;29359;53.048;8.732;2022-08-19T12:31:30;0.32;;;0.20;;
43744;SDS011;29359;53.048;8.732;2022-08-19T12:33:32;0.50;;;0.22;;
43744;SDS011;29359;53.048;8.732;2022-08-19T12:35:34;0.65;;;0.38;;
43744;SDS011;29359;53.048;8.732;2022-08-19T12:37:36;1.52;;;0.35;;
43744;SDS011;29359;53.048;8.732;2022-08-19T12:39:39;0.82;;;0.30;;
43744;SDS011;29359;53.048;8.732;2022-08-19T12:41:43;0.80;;;0.50;;
43744;SDS011;29359;53.048;8.732;2022-08-19T12:43:55;1.40;;;0.30;;
43744;SDS011;29359;53.048;8.732;2022-08-19T12:45:57;1.48;;;0.30;;
43744;SDS011;29359;53.048;8.732;2022-08-19T12:47:58;0.22;;;0.20;;
43744;SDS011;29359;53.048;8.732;2022-08-19T12:50:00;1.45;;;0.35;;